createdAt,value
2023-04-15T05:55:31.824Z,101071.38
2023-04-15T05:56:35.617Z,101076.15
2023-04-15T05:57:38.884Z,101075.53
2023-04-15T05:58:42.447Z,101074.60
2023-04-15T05:59:45.364Z,101076.22
2023-04-15T06:00:48.406Z,101079.52
2023-04-15T06:01:52.254Z,101078.25
2023-04-15T06:02:56.686Z,101076.15
2023-04-15T06:03:59.680Z,101080.78
2023-04-15T06:05:03.678Z,101077.69
2023-04-15T06:06:07.898Z,101078.00
2023-04-15T06:07:10.989Z,101077.64
2023-04-15T06:08:13.936Z,101080.93
2023-04-15T06:09:16.933Z,101077.36
2023-04-15T06:10:19.803Z,101076.38
2023-04-15T06:11:23.075Z,101077.70
2023-04-15T06:12:26.031Z,101071.66
2023-04-15T06:13:29.210Z,101075.13
2023-04-15T06:14:32.145Z,101076.85
2023-04-15T06:15:35.967Z,101079.04
2023-04-15T06:16:39.035Z,101077.64
2023-04-15T06:17:42.022Z,101079.63
2023-04-15T06:18:45.005Z,101076.66
2023-04-15T06:19:48.052Z,101079.45
2023-04-15T06:20:51.062Z,101079.16
2023-04-15T06:21:54.234Z,101079.91
2023-04-15T06:22:57.830Z,101081.30
2023-04-15T06:24:03.888Z,101081.05
2023-04-15T06:25:08.779Z,101082.33
2023-04-15T06:26:11.585Z,101084.06
2023-04-15T06:27:14.867Z,101083.31
2023-04-15T06:28:18.042Z,101081.15
2023-04-15T06:29:21.307Z,101086.30
2023-04-15T06:30:24.553Z,101087.80
2023-04-15T06:31:27.663Z,101089.61
2023-04-15T06:32:31.072Z,101089.19
2023-04-15T06:33:33.990Z,101090.77
2023-04-15T06:34:36.930Z,101086.37
2023-04-15T06:35:40.686Z,101088.68
2023-04-15T06:36:43.587Z,101087.77
2023-04-15T06:37:46.682Z,101089.87
2023-04-15T06:38:49.705Z,101089.98
2023-04-15T06:39:52.864Z,101094.73
2023-04-15T06:40:55.965Z,101092.15
2023-04-15T06:41:58.979Z,101092.41
2023-04-15T06:43:02.369Z,101096.16
2023-04-15T06:44:05.863Z,101094.35
2023-04-15T06:45:09.561Z,101095.91
2023-04-15T06:46:12.677Z,101094.46
2023-04-15T06:47:15.878Z,101093.16
2023-04-15T06:48:19.114Z,101098.45
2023-04-15T06:49:22.405Z,101097.96
2023-04-15T06:50:25.422Z,101098.98
2023-04-15T06:51:28.396Z,101098.44
2023-04-15T06:52:31.780Z,101101.23
2023-04-15T06:53:35.812Z,101100.48
2023-04-15T06:54:38.676Z,101098.33
2023-04-15T06:55:41.909Z,101101.22
2023-04-15T06:56:44.895Z,101101.05
2023-04-15T06:57:48.076Z,101105.93
2023-04-15T06:58:51.376Z,101107.20
2023-04-15T06:59:54.926Z,101105.14
2023-04-15T07:00:57.943Z,101105.34
2023-04-15T07:02:01.075Z,101103.89
2023-04-15T07:03:04.192Z,101104.70
2023-04-15T07:04:07.767Z,101105.52
2023-04-15T07:05:11.364Z,101108.00
2023-04-15T07:06:14.431Z,101106.52
2023-04-15T07:07:17.693Z,101106.27
2023-04-15T07:08:20.776Z,101105.98
2023-04-15T07:09:24.953Z,101104.44
2023-04-15T07:10:27.972Z,101104.52
2023-04-15T07:11:31.336Z,101104.63
2023-04-15T07:12:35.973Z,101105.02
2023-04-15T07:13:38.842Z,101107.48
2023-04-15T07:14:41.652Z,101105.34
2023-04-15T07:15:45.742Z,101104.11
2023-04-15T07:16:48.626Z,101101.70
2023-04-15T07:17:51.869Z,101097.38
2023-04-15T07:18:55.984Z,101102.98
2023-04-15T07:19:59.151Z,101099.33
2023-04-15T07:21:02.855Z,101104.55
2023-04-15T07:22:05.752Z,101105.23
2023-04-15T07:23:08.692Z,101102.77
2023-04-15T07:24:11.878Z,101105.44
2023-04-15T07:25:14.705Z,101108.73
2023-04-15T07:26:18.316Z,101106.17
2023-04-15T07:27:21.444Z,101107.98
2023-04-15T07:28:24.427Z,101108.63
2023-04-15T07:29:27.259Z,101107.21
2023-04-15T07:30:30.664Z,101103.20
2023-04-15T07:31:33.699Z,101105.09
2023-04-15T07:32:37.677Z,101109.02
2023-04-15T07:33:40.872Z,101106.81
2023-04-15T07:34:44.831Z,101109.29
2023-04-15T07:35:47.885Z,101110.27
2023-04-15T07:36:52.055Z,101109.34
2023-04-15T07:37:55.604Z,101107.00
2023-04-15T07:38:58.551Z,101110.32
2023-04-15T07:40:01.923Z,101112.05
2023-04-15T07:41:05.227Z,101110.58
2023-04-15T07:42:08.734Z,101108.64
2023-04-15T07:43:11.905Z,101112.82
2023-04-15T07:44:15.238Z,101109.51
2023-04-15T07:45:18.205Z,101109.80
2023-04-15T07:46:21.949Z,101107.19
2023-04-15T07:47:25.105Z,101108.14
2023-04-15T07:48:28.070Z,101111.86
2023-04-15T07:49:31.538Z,101119.09
2023-04-15T07:50:34.630Z,101114.14
2023-04-15T07:51:37.572Z,101113.85
2023-04-15T07:52:40.648Z,101113.58
2023-04-15T07:53:44.660Z,101109.91
2023-04-15T07:54:48.359Z,101111.38
2023-04-15T07:55:51.542Z,101113.77
2023-04-15T07:56:54.630Z,101112.28
2023-04-15T07:57:57.549Z,101110.30
2023-04-15T07:59:02.412Z,101114.14
2023-04-15T08:00:07.888Z,101114.19
2023-04-15T08:01:17.251Z,101113.07
2023-04-15T08:02:20.649Z,101112.59
2023-04-15T08:03:25.801Z,101117.18
2023-04-15T08:04:28.923Z,101114.84
2023-04-15T08:05:32.011Z,101112.48
2023-04-15T08:06:34.822Z,101112.73
2023-04-15T08:07:38.936Z,101114.67
2023-04-15T08:08:41.937Z,101112.73
2023-04-15T08:09:44.868Z,101111.64
2023-04-15T08:10:48.029Z,101109.48
2023-04-15T08:11:51.671Z,101108.82
2023-04-15T08:12:55.120Z,101112.08
2023-04-15T08:13:58.220Z,101114.27
2023-04-15T08:15:02.091Z,101113.05
2023-04-15T08:16:19.382Z,101112.05
2023-04-15T08:17:22.341Z,101114.41
2023-04-15T08:18:25.191Z,101110.17
2023-04-15T08:19:28.177Z,101112.11
2023-04-15T08:20:31.174Z,101111.52
2023-04-15T08:21:34.334Z,101110.71
2023-04-15T08:22:37.236Z,101109.80
2023-04-15T08:23:40.362Z,101109.04
2023-04-15T08:24:43.310Z,101108.42
2023-04-15T08:25:46.382Z,101102.91
2023-04-15T08:26:49.237Z,101104.13
2023-04-15T08:27:52.441Z,101105.81
2023-04-15T08:28:55.796Z,101107.27
2023-04-15T08:29:58.671Z,101106.45
2023-04-15T08:31:01.787Z,101110.98
2023-04-15T08:32:05.163Z,101110.27
2023-04-15T08:33:08.011Z,101114.47
2023-04-15T08:34:13.807Z,101108.34
2023-04-15T08:35:17.028Z,101110.98
2023-04-15T08:36:20.165Z,101112.34
2023-04-15T08:37:23.120Z,101114.08
2023-04-15T08:38:26.006Z,101113.77
2023-04-15T08:39:28.910Z,101115.42
2023-04-15T08:40:41.017Z,101117.08
2023-04-15T08:42:02.663Z,101118.50
2023-04-15T08:43:08.733Z,101121.27
2023-04-15T08:44:12.072Z,101117.23
2023-04-15T08:45:15.446Z,101117.27
2023-04-15T08:46:19.512Z,101115.55
2023-04-15T08:47:27.305Z,101115.25
2023-04-15T08:48:33.483Z,101115.67
2023-04-15T08:49:41.406Z,101117.16
2023-04-15T08:50:45.491Z,101116.67
2023-04-15T08:51:49.821Z,101118.89
2023-04-15T08:52:55.902Z,101118.57
2023-04-15T08:53:59.689Z,101122.35
2023-04-15T08:55:03.598Z,101124.92
2023-04-15T08:56:10.145Z,101121.97
2023-04-15T08:57:14.316Z,101126.41
2023-04-15T08:58:18.175Z,101127.28
2023-04-15T08:59:22.264Z,101124.29
2023-04-15T09:00:27.095Z,101124.08
2023-04-15T09:01:30.055Z,101122.41
2023-04-15T09:02:33.565Z,101121.67
2023-04-15T09:03:37.476Z,101122.90
2023-04-15T09:04:40.546Z,101121.34
2023-04-15T09:05:43.452Z,101124.57
2023-04-15T09:06:47.193Z,101124.84
2023-04-15T09:07:53.455Z,101125.42
2023-04-15T09:08:56.599Z,101127.71
2023-04-15T09:09:59.458Z,101123.56
2023-04-15T09:11:05.670Z,101124.48
2023-04-15T09:12:09.109Z,101125.69
2023-04-15T09:13:12.066Z,101127.15
2023-04-15T09:14:14.988Z,101128.38
2023-04-15T09:15:18.384Z,101126.23
2023-04-15T09:16:21.387Z,101130.48
2023-04-15T09:17:26.689Z,101128.58
2023-04-15T09:18:32.032Z,101125.60
2023-04-15T09:19:35.220Z,101125.92
2023-04-15T09:20:42.737Z,101129.31
2023-04-15T09:21:48.132Z,101127.09
2023-04-15T09:22:52.255Z,101124.70
2023-04-15T09:24:01.440Z,101127.30
2023-04-15T09:25:25.114Z,101124.95
2023-04-15T09:26:36.555Z,101125.58
2023-04-15T09:27:55.109Z,101129.43
2023-04-15T09:29:09.510Z,101125.96
2023-04-15T09:30:12.547Z,101126.11
2023-04-15T09:31:15.581Z,101123.30
2023-04-15T09:32:18.667Z,101126.65
2023-04-15T09:33:21.724Z,101122.49
2023-04-15T09:34:37.117Z,101126.79
2023-04-15T09:35:40.119Z,101127.09
2023-04-15T09:36:51.893Z,101126.59
2023-04-15T09:38:07.340Z,101124.89
2023-04-15T09:39:10.412Z,101125.48
2023-04-15T09:40:13.913Z,101129.39
2023-04-15T09:41:20.808Z,101127.45
2023-04-15T09:42:27.018Z,101128.60
2023-04-15T09:43:40.410Z,101129.22
2023-04-15T09:44:44.182Z,101125.59
2023-04-15T09:45:52.681Z,101125.34
2023-04-15T09:46:55.651Z,101128.77
2023-04-15T09:48:00.859Z,101127.16
2023-04-15T09:49:10.980Z,101132.70
2023-04-15T09:50:15.432Z,101132.67
2023-04-15T09:51:18.917Z,101133.06
2023-04-15T09:52:21.880Z,101132.75
2023-04-15T09:53:26.443Z,101133.50
2023-04-15T09:54:38.939Z,101136.13
2023-04-15T09:55:46.272Z,101137.91
2023-04-15T09:56:50.005Z,101139.45
2023-04-15T09:57:52.854Z,101138.64
2023-04-15T09:58:57.381Z,101136.89
2023-04-15T10:00:00.352Z,101140.45
2023-04-15T10:01:06.224Z,101138.76
2023-04-15T10:02:09.508Z,101136.93
2023-04-15T10:03:13.728Z,101138.55
2023-04-15T10:04:16.930Z,101138.14
2023-04-15T10:05:20.228Z,101139.91
2023-04-15T10:06:26.261Z,101138.23
2023-04-15T10:07:29.836Z,101141.61
2023-04-15T10:08:35.052Z,101140.91
2023-04-15T10:09:41.790Z,101143.02
2023-04-15T10:10:47.818Z,101141.01
2023-04-15T10:11:51.738Z,101144.69
2023-04-15T10:12:55.845Z,101140.52
2023-04-15T10:13:58.834Z,101145.13
2023-04-15T10:15:05.392Z,101143.19
2023-04-15T10:16:16.025Z,101148.97
2023-04-15T10:17:23.183Z,101146.57
2023-04-15T10:18:29.487Z,101150.54
2023-04-15T10:19:36.783Z,101145.88
2023-04-15T10:20:40.675Z,101148.73
2023-04-15T10:21:45.948Z,101147.65
2023-04-15T10:22:49.047Z,101146.90
2023-04-15T10:23:52.333Z,101144.52
2023-04-15T10:24:57.236Z,101147.48
2023-04-15T10:26:01.137Z,101148.89
2023-04-15T10:27:05.469Z,101146.52
2023-04-15T10:28:09.365Z,101145.99
2023-04-15T10:29:12.729Z,101146.58
2023-04-15T10:30:16.134Z,101149.38
2023-04-15T10:31:20.324Z,101147.27
2023-04-15T10:32:25.665Z,101148.72
2023-04-15T10:33:29.123Z,101146.83
2023-04-15T10:34:32.609Z,101144.92
2023-04-15T10:35:36.788Z,101145.38
2023-04-15T10:36:39.583Z,101140.20
2023-04-15T10:37:42.398Z,101143.63
2023-04-15T10:38:47.041Z,101143.80
2023-04-15T10:39:50.884Z,101145.33
2023-04-15T10:40:53.774Z,101140.86
2023-04-15T10:42:17.998Z,101141.77
2023-04-15T10:43:29.683Z,101142.80
2023-04-15T10:44:32.681Z,101140.05
2023-04-15T10:45:37.345Z,101142.90
2023-04-15T10:46:47.363Z,101144.42
2023-04-15T10:47:57.736Z,101141.80
2023-04-15T10:49:11.091Z,101150.66
2023-04-15T10:50:14.267Z,101145.99
2023-04-15T10:51:26.307Z,101148.64
2023-04-15T10:52:30.015Z,101148.52
2023-04-15T10:53:32.987Z,101148.77
2023-04-15T10:54:39.004Z,101145.08
2023-04-15T10:55:41.920Z,101143.89
2023-04-15T10:56:45.505Z,101149.91
2023-04-15T10:57:54.026Z,101145.51
2023-04-15T10:58:59.741Z,101145.56
2023-04-15T11:00:16.792Z,101145.98
2023-04-15T11:01:23.352Z,101147.31
2023-04-15T11:02:52.771Z,101144.13
2023-04-15T11:03:56.204Z,101145.77
2023-04-15T11:04:59.270Z,101146.10
2023-04-15T11:06:02.219Z,101145.90
2023-04-15T11:07:07.098Z,101142.68
2023-04-15T11:08:13.662Z,101138.67
2023-04-15T11:09:36.701Z,101142.14
2023-04-15T11:10:39.498Z,101137.75
2023-04-15T11:12:12.195Z,101139.34
2023-04-15T11:13:17.094Z,101138.16
2023-04-15T11:14:19.951Z,101139.70
2023-04-15T11:15:45.920Z,101141.15
2023-04-15T11:16:48.811Z,101134.66
2023-04-15T11:17:52.855Z,101139.05
2023-04-15T11:18:56.755Z,101135.89
2023-04-15T11:20:00.308Z,101136.60
2023-04-15T11:21:06.250Z,101137.23
2023-04-15T11:22:10.610Z,101140.33
2023-04-15T11:23:18.582Z,101142.17
2023-04-15T11:24:27.969Z,101138.95
2023-04-15T11:25:35.255Z,101137.27
2023-04-15T11:26:38.519Z,101138.72
2023-04-15T11:27:41.555Z,101142.02
2023-04-15T11:28:46.210Z,101140.77
2023-04-15T11:29:50.226Z,101141.55
2023-04-15T11:30:54.429Z,101143.88
2023-04-15T11:32:09.575Z,101143.77
2023-04-15T11:33:13.856Z,101142.20
2023-04-15T11:34:24.172Z,101143.77
2023-04-15T11:35:27.555Z,101146.41
2023-04-15T11:36:32.341Z,101148.92
2023-04-15T11:37:35.320Z,101147.35
2023-04-15T11:38:42.814Z,101148.66
2023-04-15T11:39:45.792Z,101149.20
2023-04-15T11:40:50.529Z,101149.77
2023-04-15T11:41:53.507Z,101152.20
2023-04-15T11:43:11.589Z,101151.23
2023-04-15T11:44:18.433Z,101151.39
2023-04-15T11:45:21.283Z,101149.83
2023-04-15T11:46:31.333Z,101157.48
2023-04-15T11:47:34.218Z,101151.98
2023-04-15T11:48:37.319Z,101153.66
2023-04-15T11:49:41.624Z,101152.61
2023-04-15T11:50:45.499Z,101158.35
2023-04-15T11:51:48.546Z,101157.73
2023-04-15T11:52:59.529Z,101155.23
2023-04-15T11:54:02.931Z,101156.21
2023-04-15T11:55:08.351Z,101158.31
2023-04-15T11:56:18.201Z,101154.38
2023-04-15T11:57:21.457Z,101160.15
2023-04-15T11:58:26.735Z,101157.34
2023-04-15T11:59:45.343Z,101159.27
2023-04-15T12:01:00.142Z,101163.94
2023-04-15T12:02:13.299Z,101163.17
2023-04-15T12:03:37.729Z,101158.79
2023-04-15T12:04:40.940Z,101164.23
2023-04-15T12:06:10.566Z,101165.59
2023-04-15T12:07:13.558Z,101166.66
2023-04-15T12:08:16.534Z,101170.05
2023-04-15T12:09:20.530Z,101163.19
2023-04-15T12:10:25.404Z,101168.43
2023-04-15T12:11:32.512Z,101169.31
2023-04-15T12:12:35.389Z,101166.09
2023-04-15T12:13:38.378Z,101170.02
2023-04-15T12:14:42.370Z,101166.34
2023-04-15T12:15:45.470Z,101171.85
2023-04-15T12:16:58.035Z,101172.95
2023-04-15T12:18:01.580Z,101171.66
2023-04-15T12:19:12.474Z,101171.38
2023-04-15T12:20:22.423Z,101171.24
2023-04-15T12:21:29.280Z,101171.08
2023-04-15T12:22:38.034Z,101172.45
2023-04-15T12:23:52.123Z,101170.48
2023-04-15T12:24:57.545Z,101167.91
2023-04-15T12:26:05.487Z,101174.61
2023-04-15T12:27:12.276Z,101171.79
2023-04-15T12:28:17.467Z,101172.79
2023-04-15T12:29:25.072Z,101178.14
2023-04-15T12:30:28.438Z,101175.67
2023-04-15T12:31:31.668Z,101178.88
2023-04-15T12:32:37.763Z,101176.99
2023-04-15T12:33:40.868Z,101184.97
2023-04-15T12:34:51.228Z,101180.64
2023-04-15T12:35:54.174Z,101183.63
2023-04-15T12:36:58.897Z,101183.60
2023-04-15T12:38:01.770Z,101183.14
2023-04-15T12:39:08.015Z,101184.55
2023-04-15T12:40:11.232Z,101183.67
2023-04-15T12:41:14.204Z,101186.32
2023-04-15T12:42:18.471Z,101187.92
2023-04-15T12:43:21.818Z,101184.73
2023-04-15T12:44:25.013Z,101192.69
2023-04-15T12:45:29.502Z,101190.05
2023-04-15T12:46:33.498Z,101189.34
2023-04-15T12:47:36.448Z,101194.88
2023-04-15T12:48:40.571Z,101197.77
2023-04-15T12:49:43.594Z,101198.16
2023-04-15T12:50:46.547Z,101195.08
2023-04-15T12:51:51.081Z,101197.44
2023-04-15T12:52:53.974Z,101196.73
2023-04-15T12:53:57.440Z,101199.27
2023-04-15T12:55:00.583Z,101195.50
2023-04-15T12:56:03.763Z,101198.11
2023-04-15T12:57:07.412Z,101202.27
2023-04-15T12:58:12.079Z,101201.41
2023-04-15T12:59:16.253Z,101198.71
2023-04-15T13:00:19.325Z,101197.64
2023-04-15T13:01:22.312Z,101202.09
2023-04-15T13:02:28.793Z,101202.64
2023-04-15T13:03:32.291Z,101201.66
2023-04-15T13:04:35.422Z,101202.61
2023-04-15T13:05:40.048Z,101201.83
2023-04-15T13:06:43.424Z,101205.09
2023-04-15T13:07:46.564Z,101205.52
2023-04-15T13:08:57.897Z,101202.59
2023-04-15T13:10:01.723Z,101203.70
2023-04-15T13:11:04.818Z,101209.50
2023-04-15T13:12:07.860Z,101206.15
2023-04-15T13:13:10.959Z,101206.77
2023-04-15T13:14:14.057Z,101210.87
2023-04-15T13:15:19.541Z,101209.10
2023-04-15T13:16:23.319Z,101212.90
2023-04-15T13:17:26.339Z,101215.73
2023-04-15T13:18:31.468Z,101219.03
2023-04-15T13:19:36.710Z,101222.30
2023-04-15T13:20:39.621Z,101221.66
2023-04-15T13:21:42.531Z,101223.69
2023-04-15T13:22:45.808Z,101222.02
2023-04-15T13:23:51.019Z,101224.14
2023-04-15T13:24:53.889Z,101225.19
2023-04-15T13:25:57.199Z,101223.38
2023-04-15T13:27:00.056Z,101223.35
2023-04-15T13:28:03.184Z,101226.27
2023-04-15T13:29:06.761Z,101225.85
2023-04-15T13:30:09.982Z,101226.23
2023-04-15T13:31:13.158Z,101227.17
2023-04-15T13:32:16.437Z,101230.27
2023-04-15T13:33:19.348Z,101223.58
2023-04-15T13:34:22.327Z,101230.33
2023-04-15T13:35:25.429Z,101230.22
2023-04-15T13:36:28.219Z,101231.02
2023-04-15T13:37:31.123Z,101234.95
2023-04-15T13:38:33.962Z,101236.03
2023-04-15T13:39:37.081Z,101233.48
2023-04-15T13:40:39.998Z,101235.65
2023-04-15T13:41:42.898Z,101234.81
2023-04-15T13:42:46.122Z,101233.80
2023-04-15T13:43:48.959Z,101235.11
2023-04-15T13:44:51.877Z,101237.45
2023-04-15T13:45:55.701Z,101237.55
2023-04-15T13:46:58.559Z,101238.30
2023-04-15T13:48:01.584Z,101241.64
2023-04-15T13:49:04.553Z,101242.85
2023-04-15T13:50:07.936Z,101240.41
2023-04-15T13:51:10.865Z,101247.43
2023-04-15T13:52:14.058Z,101245.46
2023-04-15T13:53:16.935Z,101246.79
2023-04-15T13:54:19.781Z,101247.95
2023-04-15T13:55:25.419Z,101248.70
2023-04-15T13:56:29.535Z,101248.12
2023-04-15T13:57:35.084Z,101253.61
2023-04-15T13:58:38.762Z,101248.34
2023-04-15T13:59:41.606Z,101250.11
2023-04-15T14:00:45.835Z,101250.32
2023-04-15T14:01:48.879Z,101248.67
2023-04-15T14:02:52.131Z,101251.85
2023-04-15T14:03:55.796Z,101249.98
2023-04-15T14:04:58.918Z,101253.20
2023-04-15T14:06:02.041Z,101251.41
2023-04-15T14:07:05.909Z,101255.31
2023-04-15T14:08:08.852Z,101252.45
2023-04-15T14:09:11.992Z,101252.45
2023-04-15T14:10:14.872Z,101256.29
2023-04-15T14:11:17.773Z,101255.79
2023-04-15T14:12:20.993Z,101257.16
2023-04-15T14:13:23.853Z,101256.09
2023-04-15T14:14:27.041Z,101258.66
2023-04-15T14:15:30.037Z,101257.25
2023-04-15T14:16:34.062Z,101258.13
2023-04-15T14:17:37.238Z,101259.74
2023-04-15T14:18:40.466Z,101258.23
2023-04-15T14:19:43.352Z,101258.86
2023-04-15T14:20:46.524Z,101256.39
2023-04-15T14:21:49.408Z,101257.01
2023-04-15T14:22:52.352Z,101260.85
2023-04-15T14:23:55.208Z,101258.66
2023-04-15T14:24:58.180Z,101258.94
2023-04-15T14:26:01.058Z,101259.20
2023-04-15T14:27:04.381Z,101255.55
2023-04-15T14:28:07.562Z,101261.21
2023-04-15T14:29:11.250Z,101260.71
2023-04-15T14:30:14.391Z,101259.19
2023-04-15T14:31:17.468Z,101258.45
2023-04-15T14:32:21.203Z,101260.83
2023-04-15T14:33:24.312Z,101263.14
2023-04-15T14:34:27.177Z,101262.89
2023-04-15T14:35:30.686Z,101263.11
2023-04-15T14:36:33.886Z,101265.87
2023-04-15T14:37:37.057Z,101265.91
2023-04-15T14:38:40.239Z,101264.01
2023-04-15T14:39:43.067Z,101269.98
2023-04-15T14:40:46.005Z,101269.89
2023-04-15T14:41:49.408Z,101269.68
2023-04-15T14:42:52.387Z,101269.36
2023-04-15T14:43:55.599Z,101271.09
2023-04-15T14:44:58.758Z,101274.23
2023-04-15T14:46:01.988Z,101277.46
2023-04-15T14:47:06.010Z,101274.73
2023-04-15T14:48:09.952Z,101276.05
2023-04-15T14:49:13.159Z,101274.15
2023-04-15T14:50:16.081Z,101275.48
2023-04-15T14:51:19.063Z,101278.61
2023-04-15T14:52:21.872Z,101279.02
2023-04-15T14:53:24.819Z,101275.77
2023-04-15T14:54:28.052Z,101279.57
2023-04-15T14:55:31.017Z,101282.46
2023-04-15T14:56:34.002Z,101284.67
2023-04-15T14:57:41.249Z,101282.23
2023-04-15T14:58:44.533Z,101286.46
2023-04-15T14:59:47.789Z,101283.43
2023-04-15T15:00:50.992Z,101287.09
2023-04-15T15:01:53.935Z,101288.21
2023-04-15T15:02:56.988Z,101284.38
2023-04-15T15:03:59.886Z,101288.92
2023-04-15T15:05:03.785Z,101292.95
2023-04-15T15:06:06.972Z,101288.02
2023-04-15T15:07:09.843Z,101288.02
2023-04-15T15:08:13.482Z,101290.71
2023-04-15T15:09:16.428Z,101290.02
2023-04-15T15:10:32.644Z,101288.08
2023-04-15T15:11:39.195Z,101288.98
2023-04-15T15:12:42.129Z,101288.50
2023-04-15T15:13:45.508Z,101293.54
2023-04-15T15:14:48.842Z,101289.16
2023-04-15T15:15:53.203Z,101291.68
2023-04-15T15:16:56.186Z,101297.15
2023-04-15T15:17:59.985Z,101293.41
2023-04-15T15:19:04.045Z,101291.89
2023-04-15T15:20:13.102Z,101297.77
2023-04-15T15:21:19.930Z,101297.89
2023-04-15T15:22:22.919Z,101293.50
2023-04-15T15:23:25.857Z,101298.46
2023-04-15T15:24:28.735Z,101298.29
2023-04-15T15:25:31.746Z,101299.45
2023-04-15T15:26:34.872Z,101301.02
2023-04-15T15:27:38.408Z,101304.38
2023-04-15T15:28:42.242Z,101303.14
2023-04-15T15:29:45.288Z,101306.77
2023-04-15T15:30:48.698Z,101308.30
2023-04-15T15:31:51.693Z,101303.70
2023-04-15T15:32:54.649Z,101308.84
2023-04-15T15:33:57.932Z,101303.84
2023-04-15T15:35:00.961Z,101310.50
2023-04-15T15:36:04.610Z,101311.04
2023-04-15T15:37:07.594Z,101310.55
2023-04-15T15:38:12.624Z,101315.23
2023-04-15T15:39:16.116Z,101316.70
2023-04-15T15:40:19.386Z,101312.84
2023-04-15T15:41:22.238Z,101313.63
2023-04-15T15:42:25.252Z,101319.94
2023-04-15T15:43:28.219Z,101316.09
2023-04-15T15:44:32.492Z,101318.20
2023-04-15T15:45:36.519Z,101321.76
2023-04-15T15:46:40.458Z,101327.01
2023-04-15T15:47:43.407Z,101325.23
2023-04-15T15:48:46.540Z,101323.70
2023-04-15T15:49:49.556Z,101326.30
2023-04-15T15:50:53.315Z,101326.18
2023-04-15T15:51:56.451Z,101327.41
2023-04-15T15:52:59.815Z,101324.04
2023-04-15T15:54:02.740Z,101325.15
2023-04-15T15:55:05.981Z,101328.00
2023-04-15T15:56:08.848Z,101329.33
2023-04-15T15:57:11.805Z,101330.03
2023-04-15T15:58:14.832Z,101331.99
2023-04-15T15:59:17.827Z,101330.11
2023-04-15T16:00:21.345Z,101332.84
2023-04-15T16:01:24.437Z,101331.06
2023-04-15T16:02:52.391Z,101336.42
2023-04-15T16:03:51.469Z,101336.83
2023-04-15T16:04:54.538Z,101337.45
2023-04-15T16:05:57.382Z,101336.95
2023-04-15T16:07:00.523Z,101339.73
2023-04-15T16:08:03.744Z,101341.02
2023-04-15T16:09:08.422Z,101342.36
2023-04-15T16:10:12.620Z,101343.19
2023-04-15T16:11:15.691Z,101344.96
2023-04-15T16:12:18.686Z,101346.20
2023-04-15T16:13:22.303Z,101347.77
2023-04-15T16:14:26.417Z,101347.81
2023-04-15T16:15:29.694Z,101351.67
2023-04-15T16:16:32.701Z,101353.77
2023-04-15T16:17:36.160Z,101353.53
2023-04-15T16:18:39.519Z,101352.86
2023-04-15T16:19:42.589Z,101355.54
2023-04-15T16:21:02.851Z,101355.83
2023-04-15T16:22:05.738Z,101355.27
2023-04-15T16:23:16.609Z,101360.90
2023-04-15T16:24:19.507Z,101363.25
2023-04-15T16:25:22.285Z,101366.68
2023-04-15T16:26:25.115Z,101363.71
2023-04-15T16:27:28.009Z,101362.85
2023-04-15T16:28:30.905Z,101366.83
2023-04-15T16:29:34.617Z,101366.65
2023-04-15T16:30:39.390Z,101367.80
2023-04-15T16:31:42.351Z,101369.41
2023-04-15T16:32:45.450Z,101369.70
2023-04-15T16:33:48.497Z,101371.35
2023-04-15T16:34:53.155Z,101370.30
2023-04-15T16:35:56.062Z,101371.61
2023-04-15T16:36:59.504Z,101372.89
2023-04-15T16:38:02.483Z,101376.95
2023-04-15T16:39:05.735Z,101375.58
2023-04-15T16:40:09.615Z,101377.81
2023-04-15T16:41:12.627Z,101380.02
2023-04-15T16:42:16.403Z,101379.56
2023-04-15T16:43:19.367Z,101381.05
2023-04-15T16:44:22.284Z,101380.96
2023-04-15T16:45:25.296Z,101384.56
2023-04-15T16:46:29.651Z,101387.33
2023-04-15T16:47:32.608Z,101387.77
2023-04-15T16:48:35.527Z,101386.23
2023-04-15T16:49:38.896Z,101390.24
2023-04-15T16:50:41.879Z,101387.89
2023-04-15T16:51:44.759Z,101393.05
2023-04-15T16:52:47.781Z,101393.04
2023-04-15T16:53:50.725Z,101396.26
2023-04-15T16:54:53.698Z,101395.06
2023-04-15T16:55:56.894Z,101399.47
2023-04-15T16:57:01.966Z,101395.17
2023-04-15T16:58:08.354Z,101395.34
2023-04-15T16:59:11.432Z,101399.01
2023-04-15T17:00:18.743Z,101399.08
2023-04-15T17:01:22.281Z,101398.38
2023-04-15T17:02:26.423Z,101399.05
2023-04-15T17:03:31.892Z,101398.98
2023-04-15T17:04:35.343Z,101401.89
2023-04-15T17:05:38.542Z,101401.14
2023-04-15T17:06:41.675Z,101402.42
2023-04-15T17:07:44.780Z,101402.96
2023-04-15T17:08:47.732Z,101403.29
2023-04-15T17:09:51.600Z,101406.77
2023-04-15T17:10:55.358Z,101407.79
2023-04-15T17:11:58.935Z,101406.73
2023-04-15T17:13:02.105Z,101412.77
2023-04-15T17:14:05.287Z,101409.74
2023-04-15T17:15:09.130Z,101410.31
2023-04-15T17:16:12.113Z,101407.64
2023-04-15T17:17:16.876Z,101412.89
2023-04-15T17:18:20.013Z,101412.30
2023-04-15T17:19:23.095Z,101412.14
2023-04-15T17:20:27.046Z,101415.70
2023-04-15T17:21:30.123Z,101414.40
2023-04-15T17:22:33.728Z,101415.14
2023-04-15T17:23:36.729Z,101415.60
2023-04-15T17:24:39.617Z,101418.44
2023-04-15T17:25:42.742Z,101419.36
2023-04-15T17:26:47.260Z,101421.62
2023-04-15T17:27:50.615Z,101421.05
2023-04-15T17:28:53.868Z,101421.76
2023-04-15T17:29:57.410Z,101425.05
2023-04-15T17:31:00.523Z,101424.81
2023-04-15T17:32:03.824Z,101429.66
2023-04-15T17:33:56.100Z,101426.44
2023-04-15T17:34:49.951Z,101428.64
2023-04-15T17:35:53.203Z,101428.25
2023-04-15T17:36:56.262Z,101432.27
2023-04-15T17:37:59.436Z,101433.13
2023-04-15T17:39:02.454Z,101431.82
2023-04-15T17:40:08.498Z,101432.71
2023-04-15T17:41:11.931Z,101432.65
2023-04-15T17:42:15.821Z,101430.86
2023-04-15T17:43:18.916Z,101435.38
2023-04-15T17:44:25.416Z,101438.77
2023-04-15T17:45:35.900Z,101440.05
2023-04-15T17:46:38.945Z,101438.55
2023-04-15T17:47:42.053Z,101442.23
2023-04-15T17:48:46.078Z,101444.63
2023-04-15T17:49:50.389Z,101444.98
2023-04-15T17:50:53.290Z,101445.70
2023-04-15T17:51:56.152Z,101447.86
2023-04-15T17:52:59.008Z,101449.64
2023-04-15T17:54:01.944Z,101452.87
2023-04-15T17:55:06.146Z,101450.35
2023-04-15T17:56:09.112Z,101451.09
2023-04-15T17:57:12.195Z,101455.24
2023-04-15T17:58:15.325Z,101451.73
2023-04-15T17:59:18.354Z,101455.34
2023-04-15T18:00:22.046Z,101457.06
2023-04-15T18:01:25.958Z,101460.78
2023-04-15T18:02:29.418Z,101459.42
2023-04-15T18:03:32.810Z,101464.66
2023-04-15T18:04:36.520Z,101460.30
2023-04-15T18:05:42.445Z,101465.00
2023-04-15T18:06:46.011Z,101463.26
2023-04-15T18:07:52.081Z,101469.42
2023-04-15T18:08:55.140Z,101471.80
2023-04-15T18:09:58.246Z,101475.49
2023-04-15T18:11:01.322Z,101473.95
2023-04-15T18:12:07.514Z,101477.13